createdAt,value
2022-10-23T00:04:46.479Z,13.84
2022-10-23T00:09:49.428Z,13.84
2022-10-23T00:14:52.382Z,13.83
2022-10-23T00:19:55.334Z,13.80
2022-10-23T00:24:58.284Z,13.78
2022-10-23T00:30:03.046Z,13.80
2022-10-23T00:35:06.660Z,13.87
2022-10-23T00:40:10.306Z,13.87
2022-10-23T00:45:31.238Z,13.83
2022-10-23T00:50:34.240Z,13.86
2022-10-23T00:55:38.962Z,13.89
2022-10-23T01:00:46.011Z,13.90
2022-10-23T01:06:03.249Z,13.94
2022-10-23T01:11:38.242Z,13.95
2022-10-23T01:17:15.899Z,13.96
2022-10-23T01:22:33.254Z,13.97
2022-10-23T01:27:48.490Z,14.01
2022-10-23T01:33:02.450Z,14.06
2022-10-23T01:38:21.008Z,14.09
2022-10-23T01:43:34.504Z,14.06
2022-10-23T01:48:37.992Z,14.05
2022-10-23T01:53:43.479Z,14.05
2022-10-23T01:58:49.524Z,14.09
2022-10-23T02:03:53.841Z,14.14
2022-10-23T02:08:57.094Z,14.16
2022-10-23T02:14:42.098Z,14.10
2022-10-23T02:20:03.019Z,14.06
2022-10-23T02:25:11.558Z,14.04
2022-10-23T02:30:18.352Z,14.08
2022-10-23T02:35:24.275Z,14.11
2022-10-23T02:40:44.424Z,14.07
2022-10-23T02:45:59.999Z,14.08
2022-10-23T02:51:56.072Z,14.11
2022-10-23T02:57:31.157Z,14.14
2022-10-23T03:02:44.285Z,14.15
2022-10-23T03:07:47.708Z,14.16
2022-10-23T03:12:50.982Z,14.13
2022-10-23T03:17:53.880Z,14.16
2022-10-23T03:22:56.785Z,14.18
2022-10-23T03:28:00.360Z,14.22
2022-10-23T03:33:03.243Z,14.21
2022-10-23T03:38:06.260Z,14.17
2022-10-23T03:43:09.323Z,14.13
2022-10-23T03:48:12.276Z,14.11
2022-10-23T03:53:15.175Z,14.14
2022-10-23T03:58:18.101Z,14.15
2022-10-23T04:03:21.014Z,14.13
2022-10-23T04:08:23.909Z,14.09
2022-10-23T04:13:27.099Z,14.06
2022-10-23T04:18:30.155Z,14.06
2022-10-23T04:23:33.313Z,14.05
2022-10-23T04:28:36.257Z,14.03
2022-10-23T04:33:39.166Z,13.94
2022-10-23T04:38:42.118Z,13.87
2022-10-23T04:43:45.045Z,13.85
2022-10-23T04:48:47.981Z,13.90
2022-10-23T04:53:50.871Z,13.95
2022-10-23T04:58:54.929Z,13.96
2022-10-23T05:03:57.886Z,13.90
2022-10-23T05:09:00.803Z,13.86
2022-10-23T05:14:03.718Z,13.87
2022-10-23T05:19:10.187Z,13.90
2022-10-23T05:24:13.102Z,13.92
2022-10-23T05:29:15.984Z,13.89
2022-10-23T05:34:23.118Z,13.88
2022-10-23T05:39:26.589Z,13.89
2022-10-23T05:44:29.331Z,13.89
2022-10-23T05:49:32.284Z,13.82
2022-10-23T05:54:35.266Z,13.75
2022-10-23T05:59:38.310Z,13.72
2022-10-23T06:04:41.270Z,13.71
2022-10-23T06:09:44.174Z,13.72
2022-10-23T06:14:47.466Z,13.72
2022-10-23T06:19:50.868Z,13.69
2022-10-23T06:24:54.128Z,13.68
2022-10-23T06:29:57.053Z,13.74
2022-10-23T06:34:59.955Z,13.80
2022-10-23T06:40:02.898Z,13.84
2022-10-23T06:45:07.337Z,13.86
2022-10-23T06:50:13.092Z,13.89
2022-10-23T06:55:19.294Z,13.96
2022-10-23T07:00:22.246Z,14.03
2022-10-23T07:05:25.146Z,14.06
2022-10-23T07:10:28.076Z,14.10
2022-10-23T07:15:31.303Z,14.19
2022-10-23T07:20:34.607Z,14.26
2022-10-23T07:25:38.063Z,14.35
2022-10-23T07:30:41.500Z,14.41
2022-10-23T07:35:46.260Z,14.45
2022-10-23T07:40:49.232Z,14.47
2022-10-23T07:45:53.222Z,14.56
2022-10-23T07:51:01.954Z,14.66
2022-10-23T07:56:16.732Z,14.73
2022-10-23T08:01:27.906Z,14.75
2022-10-23T08:06:31.058Z,14.77
2022-10-23T08:11:35.830Z,14.82
2022-10-23T08:16:39.510Z,14.83
2022-10-23T08:21:42.445Z,14.83
2022-10-23T08:26:45.355Z,14.85
2022-10-23T08:31:48.252Z,14.90
2022-10-23T08:36:51.452Z,14.94
2022-10-23T08:41:54.674Z,14.98
2022-10-23T08:47:18.610Z,14.99
2022-10-23T08:52:46.076Z,15.01
2022-10-23T08:58:33.001Z,15.03
2022-10-23T09:03:35.969Z,15.02
2022-10-23T09:08:52.237Z,15.02
2022-10-23T09:14:35.768Z,15.04
2022-10-23T09:19:38.953Z,15.13
2022-10-23T09:24:44.728Z,15.19
2022-10-23T09:29:55.185Z,15.27
2022-10-23T09:34:58.144Z,15.40
2022-10-23T09:40:25.367Z,15.47
2022-10-23T09:45:34.843Z,15.49
2022-10-23T09:50:38.004Z,15.49
2022-10-23T09:55:40.940Z,15.54
2022-10-23T10:00:49.254Z,15.63
2022-10-23T10:06:01.452Z,15.68
2022-10-23T10:11:37.633Z,15.71
2022-10-23T10:17:04.653Z,15.71
2022-10-23T10:22:34.359Z,15.77
2022-10-23T10:27:46.898Z,15.90
2022-10-23T10:33:02.751Z,16.00
2022-10-23T10:38:41.491Z,16.09
2022-10-23T10:43:53.351Z,16.11
2022-10-23T10:49:20.968Z,16.20
2022-10-23T10:54:46.539Z,16.30
2022-10-23T10:59:53.487Z,16.35
2022-10-23T11:05:20.726Z,16.37
2022-10-23T11:10:23.866Z,16.38
2022-10-23T11:15:41.180Z,16.38
2022-10-23T11:21:14.716Z,16.40
2022-10-23T11:27:02.132Z,16.41
2022-10-23T11:32:43.701Z,16.40
2022-10-23T11:37:58.381Z,16.44
2022-10-23T11:43:01.357Z,16.53
2022-10-23T11:48:23.798Z,16.60
2022-10-23T11:53:46.965Z,16.64
2022-10-23T11:58:56.556Z,16.68
2022-10-23T12:04:38.607Z,16.70
2022-10-23T12:09:46.466Z,16.66
2022-10-23T12:14:51.407Z,16.65
2022-10-23T12:20:19.830Z,16.69
2022-10-23T12:25:53.436Z,16.72
2022-10-23T12:31:17.806Z,16.69
2022-10-23T12:36:39.413Z,16.64
2022-10-23T12:41:42.964Z,16.60
2022-10-23T12:46:51.523Z,16.61
2022-10-23T12:52:18.433Z,16.64
2022-10-23T12:57:30.380Z,16.63
2022-10-23T13:02:34.378Z,16.62
2022-10-23T13:07:44.695Z,16.59
2022-10-23T13:13:00.764Z,16.60
2022-10-23T13:18:07.095Z,16.62
2022-10-23T13:23:36.136Z,16.65
2022-10-23T13:28:44.531Z,16.65
2022-10-23T13:34:05.401Z,16.66
2022-10-23T13:39:11.568Z,16.67
2022-10-23T13:44:18.131Z,16.66
2022-10-23T13:49:21.139Z,16.64
2022-10-23T13:59:35.860Z,16.52
2022-10-23T14:04:38.604Z,16.52
2022-10-23T14:09:41.620Z,16.48
2022-10-23T14:14:44.528Z,16.41
2022-10-23T14:19:47.609Z,16.32
2022-10-23T14:24:50.764Z,16.31
2022-10-23T14:29:53.667Z,16.28
2022-10-23T14:34:56.539Z,16.24
2022-10-23T14:39:59.840Z,16.19
2022-10-23T14:45:03.317Z,16.15
2022-10-23T14:50:07.258Z,16.07
2022-10-23T14:55:10.165Z,16.01
2022-10-23T15:00:13.799Z,16.03
2022-10-23T15:05:17.273Z,16.04
2022-10-23T15:10:20.233Z,16.04
2022-10-23T15:15:23.952Z,16.01
2022-10-23T15:20:27.325Z,15.94
2022-10-23T15:25:30.111Z,15.84
2022-10-23T15:30:33.676Z,15.72
2022-10-23T15:35:36.648Z,15.58
2022-10-23T15:40:39.870Z,15.50
2022-10-23T15:45:43.283Z,15.45
2022-10-23T15:50:46.046Z,15.41
2022-10-23T15:55:48.970Z,15.34
2022-10-23T16:00:51.894Z,15.25
2022-10-23T16:05:54.799Z,15.13
2022-10-23T16:10:59.727Z,14.97
2022-10-23T16:16:06.368Z,14.88
2022-10-23T16:21:37.794Z,14.82
2022-10-23T16:26:41.074Z,14.73
2022-10-23T16:31:43.991Z,14.64
2022-10-23T16:36:47.512Z,14.55
2022-10-23T16:41:50.460Z,14.45
2022-10-23T16:46:56.597Z,14.35
2022-10-23T16:51:59.506Z,14.27
2022-10-23T16:57:02.387Z,14.23
2022-10-23T17:02:05.492Z,14.22
2022-10-23T17:07:08.573Z,14.18
2022-10-23T17:12:11.542Z,14.10
2022-10-23T17:17:14.499Z,14.02
2022-10-23T17:22:17.468Z,13.96
2022-10-23T17:27:20.451Z,13.94
2022-10-23T17:32:23.365Z,13.97
2022-10-23T17:37:26.342Z,14.01
2022-10-23T17:42:29.695Z,14.04
2022-10-23T17:47:32.598Z,14.05
2022-10-23T17:52:36.536Z,14.01
2022-10-23T17:57:39.935Z,13.98
2022-10-23T18:02:42.687Z,14.02
2022-10-23T18:07:45.984Z,14.10
2022-10-23T18:12:49.121Z,14.18
2022-10-23T18:17:52.048Z,14.22
2022-10-23T18:22:55.055Z,14.22
2022-10-23T18:28:01.751Z,14.16
2022-10-23T18:33:05.516Z,14.07
2022-10-23T18:38:09.881Z,14.01
2022-10-23T18:43:15.170Z,13.97
2022-10-23T18:48:23.129Z,13.96
2022-10-23T18:53:26.153Z,13.92
2022-10-23T18:58:29.080Z,13.81
2022-10-23T19:03:33.517Z,13.70
2022-10-23T19:08:39.093Z,13.61
2022-10-23T19:13:43.025Z,13.52
2022-10-23T19:18:51.308Z,13.49
2022-10-23T19:23:54.243Z,13.48
2022-10-23T19:28:58.202Z,13.43
2022-10-23T19:34:01.445Z,13.36
2022-10-23T19:39:04.493Z,13.27
2022-10-23T19:44:07.636Z,13.16
2022-10-23T19:49:11.093Z,13.06
2022-10-23T19:54:14.099Z,12.96
2022-10-23T19:59:18.535Z,12.92
2022-10-23T20:04:21.416Z,12.87
2022-10-23T20:09:24.363Z,12.78
2022-10-23T20:14:27.579Z,12.74
2022-10-23T20:19:30.574Z,12.69
2022-10-23T20:24:33.667Z,12.69
2022-10-23T20:29:36.949Z,12.76
2022-10-23T20:34:40.059Z,12.82
2022-10-23T20:39:43.668Z,12.85
2022-10-23T20:44:46.587Z,12.83
2022-10-23T20:49:49.503Z,12.78
2022-10-23T20:54:52.416Z,12.71
2022-10-23T20:59:58.297Z,12.61
2022-10-23T21:05:01.178Z,12.58
2022-10-23T21:10:05.502Z,12.58
2022-10-23T21:15:09.622Z,12.55
2022-10-23T21:20:12.537Z,12.48
2022-10-23T21:25:15.559Z,12.38
2022-10-23T21:30:18.606Z,12.33
2022-10-23T21:35:22.142Z,12.27
2022-10-23T21:40:26.439Z,12.24
2022-10-23T21:45:29.647Z,12.24
2022-10-23T21:50:32.590Z,12.25
2022-10-23T21:55:35.501Z,12.23
2022-10-23T22:00:38.422Z,12.18
2022-10-23T22:05:41.325Z,12.05
2022-10-23T22:10:44.252Z,11.97
2022-10-23T22:15:47.184Z,11.97
2022-10-23T22:20:50.126Z,11.98
2022-10-23T22:25:53.162Z,12.00
2022-10-23T22:30:56.062Z,12.00
2022-10-23T22:36:03.596Z,11.92
2022-10-23T22:41:07.487Z,11.82
2022-10-23T22:46:14.001Z,11.71
2022-10-23T22:51:19.909Z,11.65
2022-10-23T22:56:27.150Z,11.66
2022-10-23T23:01:39.466Z,11.69
2022-10-23T23:06:42.499Z,11.71
2022-10-23T23:11:52.052Z,11.72
2022-10-23T23:16:55.359Z,11.65
2022-10-23T23:21:59.356Z,11.59
2022-10-23T23:27:02.366Z,11.53
2022-10-23T23:32:06.322Z,11.46
2022-10-23T23:37:09.238Z,11.46
2022-10-23T23:42:12.129Z,11.42
2022-10-23T23:47:15.068Z,11.40
2022-10-23T23:52:18.052Z,11.33
2022-10-23T23:57:20.980Z,11.39
